Royal Dawn — WSD3628 — position and weather

sailwx.info

Track history (hours):
 
Tides and Currents Weather Stations Pressure Air Temp Water Temp Dewpoint Dewpoint Depression Visibility Wind Speed Wind Dir Waves Ship Positions

Royal Dawn

Owner: BIXLER, BRENT E, SANTA BARBRA, CA. More information available from US FCC via Universal Licensing System and Coast Guard Vessel Documentation Center.

Last reported at 2017-Oct-24 12:32 UTC. Time now 2017-Nov-21 08:23 UTC.
Position N 32°45' W 117°27'.
Warning: this ship's position is 27 days out of date.

Length 30 m.

Type: Fishing. MMSI: 367366210.

Date/timePositionNaut miles runAvg speedWind from/ knotsBaromVisibWave heightAir tempDewpointWater temp
2017-Oct-24 12:32N 32°45' W 117°27'0 7.9
2017-Oct-24 12:30N 32°45' W 117°27'6 7.0
2017-Oct-24 11:40N 32°49' W 117°32'69 7.0
2017-Oct-24 01:48N 33°36' W 118°33'2 7.4
2017-Oct-24 01:28N 33°38' W 118°35'4 7.4
2017-Oct-24 00:59N 33°40' W 118°39'3 7.2
2017-Oct-24 00:30N 33°42' W 118°42'4 7.3
2017-Oct-24 00:00N 33°45' W 118°45'4 7.5
2017-Oct-23 23:29N 33°48' W 118°48'4 7.7
2017-Oct-23 23:00N 33°50' W 118°52'4 7.7
2017-Oct-23 22:29N 33°53' W 118°55'4 7.8
2017-Oct-23 22:00N 33°55' W 118°59'4 7.6
2017-Oct-23 21:30N 33°58' W 119°02'4 7.6
2017-Oct-23 21:00N 34°01' W 119°05'4 7.3
2017-Oct-23 20:29N 34°03' W 119°08'4 7.1
2017-Oct-23 20:00N 34°06' W 119°11'8 6.5
2017-Oct-23 18:44N 34°13' W 119°17'2 6.8
2017-Oct-23 18:29N 34°14' W 119°17'  
2017-Oct-20 15:04N 34°14' W 119°16'0 0.0
2017-Oct-20 14:58N 34°14' W 119°16'0 0.0
2017-Oct-20 13:58N 34°14' W 119°16'0 0.0
2017-Oct-20 13:28N 34°14' W 119°16'0 0.0
2017-Oct-20 12:58N 34°14' W 119°16'0 0.0
2017-Oct-20 12:25N 34°14' W 119°16'0 0.0
2017-Oct-20 11:58N 34°14' W 119°16'0 0.0
2017-Oct-20 11:28N 34°14' W 119°16'0 0.0
2017-Oct-20 10:58N 34°14' W 119°16'0 0.0
2017-Oct-20 10:28N 34°14' W 119°16'0 0.0
2017-Oct-20 09:58N 34°14' W 119°16'0 0.0
2017-Oct-20 09:28N 34°14' W 119°16'0 0.0
2017-Oct-20 08:58N 34°14' W 119°16'0 0.0
2017-Oct-20 08:28N 34°14' W 119°16'0 0.0
2017-Oct-20 07:58N 34°14' W 119°16'0 0.2
2017-Oct-20 07:30N 34°15' W 119°16'3 5.5
2017-Oct-20 06:59N 34°15' W 119°19'9 7.6
2017-Oct-20 05:50N 34°17' W 119°30'3 7.6
2017-Oct-20 05:30N 34°17' W 119°33'5 7.5
2017-Oct-20 04:49N 34°18' W 119°39'3 7.6
2017-Oct-20 04:29N 34°19' W 119°42'11 7.7
2017-Oct-20 03:02N 34°21' W 119°55'7 7.6
2017-Oct-20 02:08N 34°22' W 120°03'1 7.3
2017-Oct-20 01:59N 34°22' W 120°04'4 7.6
2017-Oct-20 01:28N 34°23' W 120°09'4 7.9
2017-Oct-20 01:00N 34°24' W 120°13'4 7.5
2017-Oct-20 00:30N 34°25' W 120°18'4 8.1
2017-Oct-20 00:00N 34°25' W 120°23'4 8.2
2017-Oct-19 23:30N 34°26' W 120°27'7 8.2
2017-Oct-19 22:42N 34°30' W 120°34'2 8.1
2017-Oct-19 22:30N 34°31' W 120°36'15 8.1
2017-Oct-19 20:42N 34°42' W 120°46'2 8.6
2017-Oct-19 20:30N 34°44' W 120°47'4 8.8
2017-Oct-19 20:00N 34°48' W 120°50'5 8.7
2017-Oct-19 19:28N 34°52' W 120°53'4 8.3
2017-Oct-19 19:00N 34°55' W 120°56'4 8.0
2017-Oct-19 18:30N 34°58' W 120°58'4 7.8
2017-Oct-19 18:00N 35°01' W 121°01'4 7.8
2017-Oct-19 17:29N 35°05' W 121°04'4 8.0
2017-Oct-19 16:59N 35°08' W 121°06'177 7.9
2017-Oct-18 18:40N 37°43' W 122°52'2 7.5
2017-Oct-18 18:25N 37°44' W 122°54'5 7.6
2017-Oct-18 17:47N 37°49' W 122°57'2 7.7
2017-Oct-18 17:30N 37°51' W 122°58'4 7.8
2017-Oct-18 17:00N 37°54' W 123°00'4 7.5
2017-Oct-18 16:29N 37°57' W 123°02'3 7.2
2017-Oct-18 16:00N 38°00' W 123°04'5 6.9
2017-Oct-18 15:20N 38°05' W 123°07'2 7.0
2017-Oct-18 15:00N 38°07' W 123°09'8 7.4
2017-Oct-18 13:57N 38°13' W 123°15'3 7.5
2017-Oct-18 13:30N 38°16' W 123°17'4 7.3
2017-Oct-18 13:00N 38°18' W 123°20'4 7.3
2017-Oct-18 12:30N 38°22' W 123°23'4 7.4
2017-Oct-18 11:59N 38°25' W 123°25'  
Track history (hours):
 
Tides and Currents Weather Stations Pressure Air Temp Water Temp Dewpoint Dewpoint Depression Visibility Wind Speed Wind Dir Waves Ship Positions

Royal Dawn

Owner: BIXLER, BRENT E, SANTA BARBRA, CA. More information available from US FCC via Universal Licensing System and Coast Guard Vessel Documentation Center.

Last reported at 2017-Oct-24 12:32 UTC. Time now 2017-Nov-21 08:23 UTC.
Position N 32°45' W 117°27'.
Warning: this ship's position is 27 days out of date.

Length 30 m.

Type: Fishing. MMSI: 367366210.

Date/timePositionNaut miles runAvg speedWind from/ knotsBaromVisibWave heightAir tempDewpointWater temp
2017-Oct-24 12:32N 32°45' W 117°27'0 7.9
2017-Oct-24 12:30N 32°45' W 117°27'6 7.0
2017-Oct-24 11:40N 32°49' W 117°32'69 7.0
2017-Oct-24 01:48N 33°36' W 118°33'2 7.4
2017-Oct-24 01:28N 33°38' W 118°35'4 7.4
2017-Oct-24 00:59N 33°40' W 118°39'3 7.2
2017-Oct-24 00:30N 33°42' W 118°42'4 7.3
2017-Oct-24 00:00N 33°45' W 118°45'4 7.5
2017-Oct-23 23:29N 33°48' W 118°48'4 7.7
2017-Oct-23 23:00N 33°50' W 118°52'4 7.7
2017-Oct-23 22:29N 33°53' W 118°55'4 7.8
2017-Oct-23 22:00N 33°55' W 118°59'4 7.6
2017-Oct-23 21:30N 33°58' W 119°02'4 7.6
2017-Oct-23 21:00N 34°01' W 119°05'4 7.3
2017-Oct-23 20:29N 34°03' W 119°08'4 7.1
2017-Oct-23 20:00N 34°06' W 119°11'8 6.5
2017-Oct-23 18:44N 34°13' W 119°17'2 6.8
2017-Oct-23 18:29N 34°14' W 119°17'  
2017-Oct-20 15:04N 34°14' W 119°16'0 0.0
2017-Oct-20 14:58N 34°14' W 119°16'0 0.0
2017-Oct-20 13:58N 34°14' W 119°16'0 0.0
2017-Oct-20 13:28N 34°14' W 119°16'0 0.0
2017-Oct-20 12:58N 34°14' W 119°16'0 0.0
2017-Oct-20 12:25N 34°14' W 119°16'0 0.0
2017-Oct-20 11:58N 34°14' W 119°16'0 0.0
2017-Oct-20 11:28N 34°14' W 119°16'0 0.0
2017-Oct-20 10:58N 34°14' W 119°16'0 0.0
2017-Oct-20 10:28N 34°14' W 119°16'0 0.0
2017-Oct-20 09:58N 34°14' W 119°16'0 0.0
2017-Oct-20 09:28N 34°14' W 119°16'0 0.0
2017-Oct-20 08:58N 34°14' W 119°16'0 0.0
2017-Oct-20 08:28N 34°14' W 119°16'0 0.0
2017-Oct-20 07:58N 34°14' W 119°16'0 0.2
2017-Oct-20 07:30N 34°15' W 119°16'3 5.5
2017-Oct-20 06:59N 34°15' W 119°19'9 7.6
2017-Oct-20 05:50N 34°17' W 119°30'3 7.6
2017-Oct-20 05:30N 34°17' W 119°33'5 7.5
2017-Oct-20 04:49N 34°18' W 119°39'3 7.6
2017-Oct-20 04:29N 34°19' W 119°42'11 7.7
2017-Oct-20 03:02N 34°21' W 119°55'7 7.6
2017-Oct-20 02:08N 34°22' W 120°03'1 7.3
2017-Oct-20 01:59N 34°22' W 120°04'4 7.6
2017-Oct-20 01:28N 34°23' W 120°09'4 7.9
2017-Oct-20 01:00N 34°24' W 120°13'4 7.5
2017-Oct-20 00:30N 34°25' W 120°18'4 8.1
2017-Oct-20 00:00N 34°25' W 120°23'4 8.2
2017-Oct-19 23:30N 34°26' W 120°27'7 8.2
2017-Oct-19 22:42N 34°30' W 120°34'2 8.1
2017-Oct-19 22:30N 34°31' W 120°36'15 8.1
2017-Oct-19 20:42N 34°42' W 120°46'2 8.6
2017-Oct-19 20:30N 34°44' W 120°47'4 8.8
2017-Oct-19 20:00N 34°48' W 120°50'5 8.7
2017-Oct-19 19:28N 34°52' W 120°53'4 8.3
2017-Oct-19 19:00N 34°55' W 120°56'4 8.0
2017-Oct-19 18:30N 34°58' W 120°58'4 7.8
2017-Oct-19 18:00N 35°01' W 121°01'4 7.8
2017-Oct-19 17:29N 35°05' W 121°04'4 8.0
2017-Oct-19 16:59N 35°08' W 121°06'177 7.9
2017-Oct-18 18:40N 37°43' W 122°52'2 7.5
2017-Oct-18 18:25N 37°44' W 122°54'5 7.6
2017-Oct-18 17:47N 37°49' W 122°57'2 7.7
2017-Oct-18 17:30N 37°51' W 122°58'4 7.8
2017-Oct-18 17:00N 37°54' W 123°00'4 7.5
2017-Oct-18 16:29N 37°57' W 123°02'3 7.2
2017-Oct-18 16:00N 38°00' W 123°04'5 6.9
2017-Oct-18 15:20N 38°05' W 123°07'2 7.0
2017-Oct-18 15:00N 38°07' W 123°09'8 7.4
2017-Oct-18 13:57N 38°13' W 123°15'3 7.5
2017-Oct-18 13:30N 38°16' W 123°17'4 7.3
2017-Oct-18 13:00N 38°18' W 123°20'4 7.3
2017-Oct-18 12:30N 38°22' W 123°23'4 7.4
2017-Oct-18 11:59N 38°25' W 123°25'  

Dump ship's entire track history